Time;durP1;ratioP1;P1;durP2;ratioP2;P2;SDS_P1;SDS_P2;PMS_P1;PMS_P2;Temp;Humidity;BMP_temperature;BMP_pressure;BME280_temperature;BME280_humidity;BME280_pressure;Samples;Min_cycle;Max_cycle;Signal;HPM_P1;HPM_P2
2021/12/19 00:09:07;;;;;;;;;;;;;;;7.40;100.00;103560.47;5036689;28;20396;-46
2021/12/19 00:11:35;;;;;;;9.30;6.50;;;;;;;7.38;100.00;103563.34;5035474;28;19921;-48
2021/12/19 00:14:04;;;;;;;9.55;6.72;;;;;;;7.39;100.00;103558.78;5035139;28;20103;-47
2021/12/19 00:16:32;;;;;;;10.70;7.25;;;;;;;7.38;100.00;103554.38;5035580;28;20045;-45
2021/12/19 00:19:00;;;;;;;11.18;8.18;;;;;;;7.36;100.00;103550.97;5035159;28;20041;-45
2021/12/19 00:21:28;;;;;;;12.52;7.90;;;;;;;7.35;100.00;103552.03;5036391;28;20049;-47
2021/12/19 00:23:56;;;;;;;11.82;8.38;;;;;;;7.31;100.00;103545.25;5034790;28;20064;-42
2021/12/19 00:26:25;;;;;;;13.57;8.68;;;;;;;7.29;100.00;103555.44;5035332;28;20048;-48
2021/12/19 00:28:53;;;;;;;13.13;8.98;;;;;;;7.28;100.00;103545.63;5052142;28;20075;-49
2021/12/19 00:31:21;;;;;;;14.70;8.90;;;;;;;7.22;100.00;103548.03;5044885;28;20050;-50
2021/12/19 00:33:49;;;;;;;14.40;8.90;;;;;;;7.20;100.00;103554.66;5035205;28;20103;-49
2021/12/19 00:36:17;;;;;;;13.57;8.88;;;;;;;7.18;100.00;103549.41;5035100;28;20041;-48
2021/12/19 00:38:46;;;;;;;13.32;8.70;;;;;;;7.19;100.00;103551.09;5034606;28;20071;-47
2021/12/19 00:41:13;;;;;;;13.57;9.23;;;;;;;7.20;100.00;103544.66;5034643;28;20050;-48
2021/12/19 00:43:53;;;;;;;14.00;9.68;;;;;;;7.23;100.00;103538.84;5035038;28;20049;-49
2021/12/19 00:46:23;;;;;;;17.10;11.50;;;;;;;7.22;100.00;103541.78;5034682;28;20045;-51
2021/12/19 00:48:53;;;;;;;16.70;11.38;;;;;;;7.21;100.00;103535.47;5034744;28;20776;-48
2021/12/19 00:51:23;;;;;;;16.38;11.75;;;;;;;7.23;100.00;103535.31;5034502;28;20041;-45
2021/12/19 00:53:53;;;;;;;16.85;11.48;;;;;;;7.23;100.00;103541.56;5035255;28;20045;-46
2021/12/19 00:56:21;;;;;;;18.27;11.27;;;;;;;7.22;100.00;103537.19;5034738;28;20049;-49
2021/12/19 00:58:49;;;;;;;17.10;11.07;;;;;;;7.19;100.00;103533.97;5036301;28;20046;-47
2021/12/19 01:01:18;;;;;;;15.32;10.10;;;;;;;7.15;100.00;103528.06;5046684;28;20039;-46
2021/12/19 01:03:47;;;;;;;16.55;10.93;;;;;;;7.15;100.00;103533.50;5035422;28;20041;-45
2021/12/19 01:06:18;;;;;;;15.88;10.75;;;;;;;7.13;100.00;103526.56;5034408;28;20041;-47
2021/12/19 01:08:47;;;;;;;17.08;11.15;;;;;;;7.14;100.00;103523.66;5034022;28;20076;-46
2021/12/19 01:11:15;;;;;;;18.00;11.55;;;;;;;7.14;100.00;103523.66;5034333;28;20045;-46
2021/12/19 01:13:43;;;;;;;17.65;10.93;;;;;;;7.14;100.00;103523.66;5041683;28;20564;-47
2021/12/19 01:16:10;;;;;;;18.85;11.27;;;;;;;7.16;100.00;103521.63;5034776;28;20045;-46
2021/12/19 01:18:38;;;;;;;18.75;12.07;;;;;;;7.20;100.00;103525.66;5033381;28;20625;-45
2021/12/19 01:21:06;;;;;;;19.75;11.65;;;;;;;7.22;100.00;103526.34;5033959;28;20049;-45
2021/12/19 01:23:33;;;;;;;19.02;12.85;;;;;;;7.20;100.00;103522.97;5034613;28;20454;-45
2021/12/19 01:26:01;;;;;;;20.20;12.95;;;;;;;7.18;100.00;103525.00;5053859;28;20440;-48
2021/12/19 01:28:29;;;;;;;21.23;13.32;;;;;;;7.18;100.00;103518.75;5053098;28;20049;-47
2021/12/19 01:30:56;;;;;;;20.00;12.90;;;;;;;7.15;100.00;103525.38;5033736;28;20042;-46
2021/12/19 01:33:24;;;;;;;20.15;13.05;;;;;;;7.12;100.00;103517.59;5033949;28;20500;-45
2021/12/19 01:35:52;;;;;;;20.88;13.13;;;;;;;7.07;100.00;103517.28;5034936;28;20042;-45
2021/12/19 01:38:19;;;;;;;20.33;12.82;;;;;;;7.03;100.00;103515.94;5034871;28;20457;-47
2021/12/19 01:40:47;;;;;;;19.63;12.65;;;;;;;7.01;100.00;103507.16;5053574;28;20098;-46
2021/12/19 01:43:20;;;;;;;19.63;11.95;;;;;;;7.02;100.00;103500.69;5053541;28;20114;-45
2021/12/19 01:45:47;;;;;;;18.90;11.82;;;;;;;7.03;100.00;103505.94;5051604;28;20037;-41
2021/12/19 01:48:15;;;;;;;21.30;13.02;;;;;;;7.04;100.00;103509.50;5053104;28;20048;-45
2021/12/19 01:50:43;;;;;;;18.20;11.75;;;;;;;7.02;100.00;103514.25;5053309;28;20041;-45
2021/12/19 01:53:12;;;;;;;17.15;11.90;;;;;;;6.98;100.00;103510.22;5037472;28;20412;-44
2021/12/19 01:55:42;;;;;;;19.02;12.80;;;;;;;6.95;100.00;103502.41;5033918;28;20045;-48
2021/12/19 01:58:11;;;;;;;17.90;12.93;;;;;;;6.94;100.00;103508.88;5050227;28;20388;-45
2021/12/19 02:00:41;;;;;;;17.02;12.10;;;;;;;6.90;100.00;103510.25;5033390;28;20500;-47
2021/12/19 02:03:10;;;;;;;16.83;11.20;;;;;;;6.86;100.00;103503.50;5033524;28;20045;-49
2021/12/19 02:05:38;;;;;;;17.23;11.73;;;;;;;6.84;100.00;103500.97;5033128;28;20053;-44
2021/12/19 02:08:06;;;;;;;15.88;11.43;;;;;;;6.83;100.00;103496.56;5033965;28;20087;-47
2021/12/19 02:10:35;;;;;;;16.20;11.52;;;;;;;6.85;100.00;103493.69;5033004;28;20165;-46
2021/12/19 02:13:05;;;;;;;17.75;12.27;;;;;;;6.84;100.00;103490.13;5033000;28;20430;-48
2021/12/19 02:15:34;;;;;;;18.50;13.05;;;;;;;6.82;100.00;103487.59;5048079;28;20049;-45
2021/12/19 02:18:07;;;;;;;17.95;12.30;;;;;;;6.81;100.00;103485.06;5050828;28;20087;-46
2021/12/19 02:20:41;;;;;;;18.85;12.68;;;;;;;6.80;100.00;103483.38;5051520;28;20392;-45
2021/12/19 02:23:10;;;;;;;22.95;14.70;;;;;;;6.81;100.00;103485.91;5052544;28;20063;-47
2021/12/19 02:25:39;;;;;;;23.80;15.70;;;;;;;6.79;100.00;103479.81;5052546;28;20556;-46
2021/12/19 02:28:07;;;;;;;22.83;15.38;;;;;;;6.78;100.00;103479.97;5035711;28;20546;-46
2021/12/19 02:30:35;;;;;;;24.38;16.27;;;;;;;6.78;100.00;103475.44;5032943;28;20053;-46
2021/12/19 02:33:05;;;;;;;24.02;16.15;;;;;;;6.79;100.00;103477.09;5033529;28;20094;-44
2021/12/19 02:35:35;;;;;;;27.42;17.83;;;;;;;6.78;100.00;103474.56;5031666;28;20049;-46
2021/12/19 02:48:09;;;;;;;24.67;16.73;;;;;;;6.73;100.00;103475.09;5052533;28;20105;-45
2021/12/19 02:49:04;;;;;;;22.02;14.13;;;;;;;6.66;100.00;103474.09;5050685;28;20122;-46
2021/12/19 02:51:34;;;;;;;18.75;12.02;;;;;;;6.64;100.00;103476.19;5051772;28;20453;-46
2021/12/19 02:54:03;;;;;;;19.80;11.57;;;;;;;6.63;100.00;103477.19;5034790;28;20522;-46
2021/12/19 02:56:31;;;;;;;17.55;10.48;;;;;;;6.60;100.00;103475.66;5037223;28;20493;-47
2021/12/19 02:58:59;;;;;;;13.40;8.88;;;;;;;6.60;100.00;103469.41;5052622;28;20052;-47
2021/12/19 03:01:27;;;;;;;15.15;8.48;;;;;;;6.58;100.00;103466.88;5050555;28;20045;-43
2021/12/19 03:03:55;;;;;;;13.57;8.68;;;;;;;6.56;100.00;103460.78;5052237;28;20049;-47
2021/12/19 03:06:24;;;;;;;13.20;8.27;;;;;;;6.59;100.00;103459.56;5051314;28;20064;-43
2021/12/19 03:08:52;;;;;;;14.90;8.90;;;;;;;6.61;100.00;103452.13;5050592;28;20095;-46
2021/12/19 03:19:49;;;;;;;;;;;;;;;6.59;100.00;103438.78;4992182;28;20104;-48
2021/12/19 03:22:17;;;;;;;19.95;12.82;;;;;;;6.62;100.00;103443.00;4990669;28;19925;-46
2021/12/19 03:24:44;;;;;;;21.10;13.52;;;;;;;6.60;100.00;103440.44;4993106;28;20038;-45
2021/12/19 03:27:12;;;;;;;20.33;13.60;;;;;;;6.58;100.00;103433.53;4990725;28;20477;-42
2021/12/19 03:29:40;;;;;;;22.90;14.02;;;;;;;6.57;100.00;103437.25;4991893;28;20046;-47
2021/12/19 03:32:07;;;;;;;24.58;14.00;;;;;;;6.60;100.00;103434.19;4990804;28;20055;-46
2021/12/19 03:34:35;;;;;;;22.33;13.50;;;;;;;6.61;100.00;103441.28;5001331;28;20141;-47
2021/12/19 03:37:03;;;;;;;21.85;14.00;;;;;;;6.60;100.00;103435.03;4993648;28;20086;-47
2021/12/19 03:39:44;;;;;;;19.63;12.60;;;;;;;6.58;100.00;103422.69;5010116;28;20088;-45
2021/12/19 03:42:12;;;;;;;19.65;12.52;;;;;;;6.57;100.00;103423.72;4997205;28;20058;-48
2021/12/19 03:44:40;;;;;;;18.08;11.70;;;;;;;6.54;100.00;103424.06;4994692;28;20104;-46
2021/12/19 03:47:08;;;;;;;25.38;15.77;;;;;;;6.50;100.00;103429.00;4994299;28;20148;-46
2021/12/19 03:49:35;;;;;;;26.02;17.13;;;;;;;6.47;100.00;103423.06;4994997;28;20429;-47
2021/12/19 03:52:04;;;;;;;16.77;10.25;;;;;;;6.46;100.00;103414.09;5031373;28;20041;-45
2021/12/19 03:54:31;;;;;;;13.15;8.55;;;;;;;6.49;100.00;103415.63;5043348;28;20053;-48
2021/12/19 03:56:59;;;;;;;12.73;7.45;;;;;;;6.52;100.00;103409.88;5035731;28;20115;-48
2021/12/19 03:59:27;;;;;;;11.27;7.15;;;;;;;6.53;100.00;103419.66;5035715;28;20103;-46
2021/12/19 04:01:55;;;;;;;10.93;6.47;;;;;;;6.55;100.00;103414.94;5036592;28;20045;-46
2021/12/19 04:04:23;;;;;;;9.60;6.03;;;;;;;6.55;100.00;103409.50;5035342;28;20119;-46
2021/12/19 04:06:51;;;;;;;9.57;5.82;;;;;;;6.52;100.00;103401.75;5035371;28;20045;-47
2021/12/19 04:09:18;;;;;;;9.90;5.85;;;;;;;6.51;100.00;103389.22;5036212;28;20041;-44
2021/12/19 04:11:49;;;;;;;9.43;5.00;;;;;;;6.51;100.00;103381.91;5054766;28;20525;-46
2021/12/19 04:14:17;;;;;;;9.13;5.28;;;;;;;6.52;100.00;103382.78;5055028;28;20049;-44
2021/12/19 04:16:45;;;;;;;11.02;5.18;;;;;;;6.52;100.00;103374.66;5055564;28;20037;-44
2021/12/19 04:19:12;;;;;;;9.68;5.40;;;;;;;6.53;100.00;103368.22;5054922;28;20056;-47
2021/12/19 04:21:40;;;;;;;8.95;5.07;;;;;;;6.53;100.00;103368.22;5053717;28;20033;-46
2021/12/19 04:24:08;;;;;;;8.93;5.20;;;;;;;6.53;100.00;103368.22;5037150;28;20523;-46
2021/12/19 04:26:35;;;;;;;10.23;4.93;;;;;;;6.54;100.00;103364.47;5035106;28;20041;-45
2021/12/19 04:29:03;;;;;;;9.57;5.53;;;;;;;6.57;100.00;103358.72;5036067;28;20114;-47
2021/12/19 04:31:31;;;;;;;8.82;5.03;;;;;;;6.58;100.00;103352.25;5034929;28;20041;-47
2021/12/19 04:33:58;;;;;;;9.05;4.90;;;;;;;6.59;100.00;103345.81;5034837;28;20045;-46
2021/12/19 04:36:32;;;;;;;8.93;5.20;;;;;;;6.60;100.00;103342.94;5033475;28;20045;-44
2021/12/19 04:39:19;;;;;;;8.48;4.88;;;;;;;6.61;100.00;103341.06;5034767;28;20050;-46
2021/12/19 04:42:38;;;;;;;9.32;4.97;;;;;;;6.60;100.00;103336.69;5035789;28;20071;-47
2021/12/19 05:03:44;;;;;;;6.72;4.13;;;;;;;6.60;100.00;103317.72;5054389;28;20080;-48
2021/12/19 05:14:22;;;;;;;8.25;4.85;;;;;;;6.52;100.00;103324.03;5034443;28;20095;-44
2021/12/19 05:16:51;;;;;;;8.82;5.03;;;;;;;6.52;100.00;103326.75;5034316;28;20042;-46
2021/12/19 05:19:42;;;;;;;8.23;4.82;;;;;;;6.50;100.00;103326.06;5034190;28;20415;-45
2021/12/19 05:22:09;;;;;;;7.50;4.57;;;;;;;6.51;100.00;103327.75;5034897;28;20046;-51
2021/12/19 05:27:06;;;;;;;7.65;4.70;;;;;;;6.51;100.00;103327.75;5042617;28;20037;-45
2021/12/19 05:29:35;;;;;;;8.60;4.90;;;;;;;6.52;100.00;103334.03;5053819;28;20053;-46
2021/12/19 05:32:04;;;;;;;8.82;4.65;;;;;;;6.51;100.00;103324.19;5047943;28;20063;-42
2021/12/19 05:34:32;;;;;;;8.15;4.95;;;;;;;6.53;100.00;103325.72;5033731;28;20052;-49
2021/12/19 05:45:20;;;;;;;8.50;5.00;;;;;;;6.51;100.00;103305.25;5033089;28;20508;-45
2021/12/19 05:47:50;;;;;;;7.70;4.95;;;;;;;6.51;100.00;103294.41;5033437;28;20076;-45
2021/12/19 05:50:20;;;;;;;9.35;5.00;;;;;;;6.52;100.00;103296.13;5033339;28;20478;-46
2021/12/19 05:52:48;;;;;;;9.35;5.50;;;;;;;6.52;100.00;103288.00;5034452;28;20049;-46
2021/12/19 05:55:16;;;;;;;8.45;5.20;;;;;;;6.52;100.00;103302.38;5031425;28;20053;-43
2021/12/19 05:57:44;;;;;;;8.45;5.10;;;;;;;6.53;100.00;103314.88;5035526;28;20087;-46
2021/12/19 06:00:16;;;;;;;8.95;5.53;;;;;;;6.53;100.00;103308.63;5053113;28;20044;-47
2021/12/19 06:02:44;;;;;;;8.43;5.05;;;;;;;6.51;100.00;103303.38;5051736;28;20048;-48
2021/12/19 06:05:13;;;;;;;8.55;5.07;;;;;;;6.49;100.00;103296.44;5037496;28;20045;-47
2021/12/19 06:07:41;;;;;;;8.30;5.10;;;;;;;6.44;100.00;103296.16;5036775;28;20442;-46
2021/12/19 06:10:10;;;;;;;8.43;4.88;;;;;;;6.45;100.00;103295.97;5052126;28;20049;-46
2021/12/19 06:12:38;;;;;;;8.07;4.93;;;;;;;6.47;100.00;103298.50;5051113;28;20416;-46
2021/12/19 06:15:09;;;;;;;8.52;4.75;;;;;;;6.49;100.00;103308.13;5048158;28;20046;-47
2021/12/19 06:17:39;;;;;;;8.27;4.85;;;;;;;6.50;100.00;103298.16;5032837;28;20041;-46
2021/12/19 06:20:08;;;;;;;9.52;4.63;;;;;;;6.53;100.00;103297.78;5032958;28;20046;-46
2021/12/19 06:22:37;;;;;;;8.25;4.60;;;;;;;6.52;100.00;103301.53;5033209;28;20041;-47
2021/12/19 06:25:06;;;;;;;7.22;4.47;;;;;;;6.51;100.00;103289.81;5033490;28;20158;-46
2021/12/19 06:27:33;;;;;;;7.55;4.60;;;;;;;6.52;100.00;103291.53;5034133;28;20454;-46
2021/12/19 06:30:01;;;;;;;7.10;4.70;;;;;;;6.52;100.00;103290.69;5032738;28;20182;-48
2021/12/19 06:32:28;;;;;;;7.35;4.57;;;;;;;6.54;100.00;103280.50;5034275;28;20041;-47
2021/12/19 06:34:59;;;;;;;8.07;4.85;;;;;;;6.56;100.00;103283.88;5032466;28;20564;-42
2021/12/19 06:37:26;;;;;;;7.45;4.50;;;;;;;6.56;100.00;103282.00;5032540;28;20472;-44
2021/12/19 06:39:54;;;;;;;8.25;5.05;;;;;;;6.55;100.00;103285.75;5048700;28;20094;-47
2021/12/19 06:42:22;;;;;;;9.25;5.20;;;;;;;6.55;100.00;103274.06;5052536;28;20098;-47
2021/12/19 06:44:49;;;;;;;8.68;5.22;;;;;;;6.54;100.00;103266.97;5036670;28;20090;-48
2021/12/19 06:47:17;;;;;;;7.97;4.80;;;;;;;6.53;100.00;103263.41;5036531;28;20433;-46
2021/12/19 06:49:45;;;;;;;8.02;4.78;;;;;;;6.55;100.00;103260.53;5052496;28;20098;-46
2021/12/19 06:52:13;;;;;;;8.70;5.20;;;;;;;6.55;100.00;103263.25;5050850;28;20052;-47
2021/12/19 06:54:40;;;;;;;7.57;5.25;;;;;;;6.53;100.00;103254.44;5051860;28;20377;-47
2021/12/19 06:57:08;;;;;;;8.98;5.38;;;;;;;6.51;100.00;103259.19;5052226;28;20049;-47
2021/12/19 06:59:36;;;;;;;8.85;5.43;;;;;;;6.51;100.00;103257.34;5052177;28;20086;-42
2021/12/19 07:02:03;;;;;;;7.97;4.88;;;;;;;6.49;100.00;103255.81;5052185;28;20045;-46
2021/12/19 07:04:31;;;;;;;8.18;4.75;;;;;;;6.49;100.00;103255.81;5050692;28;20045;-44
2021/12/19 07:06:59;;;;;;;9.15;5.20;;;;;;;6.53;100.00;103246.31;5048292;28;20044;-45
2021/12/19 07:09:26;;;;;;;8.23;5.35;;;;;;;6.53;100.00;103251.75;5044170;28;20095;-46
2021/12/19 07:11:54;;;;;;;9.35;5.57;;;;;;;6.52;100.00;103255.50;5052228;28;20079;-46
2021/12/19 07:14:22;;;;;;;10.10;5.40;;;;;;;6.53;100.00;103254.44;5050373;28;20086;-45
2021/12/19 07:16:49;;;;;;;8.45;5.22;;;;;;;6.54;100.00;103251.56;5054228;28;20049;-47
2021/12/19 07:19:17;;;;;;;8.48;5.57;;;;;;;6.55;100.00;103252.41;5056436;28;20045;-46
2021/12/19 07:21:45;;;;;;;10.38;5.70;;;;;;;6.56;100.00;103251.38;5055940;28;20106;-46
2021/12/19 07:24:12;;;;;;;8.40;5.00;;;;;;;6.57;100.00;103256.63;5053996;28;20098;-46
2021/12/19 07:26:40;;;;;;;8.45;5.20;;;;;;;6.58;100.00;103254.75;5055992;28;20048;-46
2021/12/19 07:29:08;;;;;;;8.25;5.15;;;;;;;6.57;100.00;103253.06;5055907;28;20457;-47
2021/12/19 07:31:37;;;;;;;7.47;5.03;;;;;;;6.55;100.00;103249.69;5055930;28;20041;-47
2021/12/19 07:34:06;;;;;;;8.73;5.13;;;;;;;6.55;100.00;103244.28;5055782;28;20052;-44
2021/12/19 07:36:41;;;;;;;8.07;4.90;;;;;;;6.55;100.00;103242.41;5048362;28;20104;-44
2021/12/19 07:39:22;;;;;;;8.05;5.15;;;;;;;6.55;100.00;103231.56;5035874;28;20095;-46
2021/12/19 07:41:50;;;;;;;8.30;5.20;;;;;;;6.57;100.00;103226.81;5035980;28;20053;-46
2021/12/19 07:44:17;;;;;;;10.48;5.57;;;;;;;6.59;100.00;103226.63;5041145;28;20094;-47
2021/12/19 07:46:45;;;;;;;9.07;5.70;;;;;;;6.61;100.00;103224.56;5053592;28;20371;-46
2021/12/19 07:49:13;;;;;;;9.27;5.78;;;;;;;6.62;100.00;103220.88;5055391;28;20457;-46
2021/12/19 07:51:42;;;;;;;8.77;5.38;;;;;;;6.63;100.00;103224.41;5055758;28;20483;-45
2021/12/19 07:54:09;;;;;;;9.07;5.43;;;;;;;6.63;100.00;103222.53;5055024;28;20052;-46
2021/12/19 07:56:37;;;;;;;9.55;5.75;;;;;;;6.64;100.00;103226.94;5053511;28;20499;-46
2021/12/19 07:59:05;;;;;;;9.27;5.53;;;;;;;6.66;100.00;103226.75;5055281;28;20178;-43
2021/12/19 08:01:33;;;;;;;9.63;6.25;;;;;;;6.66;100.00;103222.16;5055681;28;20090;-46
2021/12/19 08:04:01;;;;;;;9.73;6.05;;;;;;;6.68;100.00;103222.81;5050775;28;20061;-46
2021/12/19 08:06:31;;;;;;;9.55;5.47;;;;;;;6.70;100.00;103223.50;5039269;28;20040;-44
2021/12/19 08:09:20;;;;;;;8.52;5.20;;;;;;;6.72;100.00;103213.31;5053810;28;20048;-42
2021/12/19 08:11:48;;;;;;;10.05;5.47;;;;;;;6.76;100.00;103227.34;5055160;28;20405;-50
2021/12/19 08:14:16;;;;;;;8.75;5.93;;;;;;;6.76;100.00;103211.94;5054801;28;20041;-44
2021/12/19 08:16:45;;;;;;;9.65;6.07;;;;;;;6.79;100.00;103216.13;5053282;28;20483;-46
2021/12/19 08:19:13;;;;;;;9.27;5.47;;;;;;;6.78;100.00;103215.31;5055170;28;20118;-46
2021/12/19 08:21:41;;;;;;;9.80;5.85;;;;;;;6.78;100.00;103223.44;5055125;28;20048;-46
2021/12/19 08:24:11;;;;;;;9.38;5.78;;;;;;;6.80;100.00;103218.66;5046801;28;20067;-46
2021/12/19 08:26:41;;;;;;;10.25;6.40;;;;;;;6.81;100.00;103219.50;5035608;28;20434;-43
2021/12/19 08:29:11;;;;;;;9.02;5.63;;;;;;;6.79;100.00;103216.97;5034726;28;20045;-47
2021/12/19 08:31:40;;;;;;;8.90;5.60;;;;;;;6.78;100.00;103215.31;5034961;28;20415;-47
2021/12/19 08:34:08;;;;;;;10.55;6.30;;;;;;;6.80;100.00;103224.06;5035593;28;20050;-47
2021/12/19 08:36:36;;;;;;;11.50;5.90;;;;;;;6.80;100.00;103218.66;5035691;28;20052;-43
2021/12/19 08:39:05;;;;;;;9.77;6.05;;;;;;;6.79;100.00;103222.41;5034682;28;20389;-47
2021/12/19 08:41:38;;;;;;;8.68;5.53;;;;;;;6.78;100.00;103218.00;5050250;28;20097;-45
2021/12/19 08:44:06;;;;;;;9.80;5.82;;;;;;;6.80;100.00;103218.66;5055008;28;20037;-47
2021/12/19 08:46:35;;;;;;;10.23;5.90;;;;;;;6.80;100.00;103218.66;5052749;28;20045;-47
2021/12/19 08:49:04;;;;;;;11.98;6.00;;;;;;;6.82;100.00;103219.31;5054780;28;20055;-47
2021/12/19 08:51:32;;;;;;;10.23;5.97;;;;;;;6.83;100.00;103210.16;5054552;28;20094;-47
2021/12/19 08:54:00;;;;;;;10.55;5.45;;;;;;;6.83;100.00;103202.03;5054315;28;20086;-47
2021/12/19 08:56:29;;;;;;;9.07;5.40;;;;;;;6.82;100.00;103204.94;5052580;28;20064;-43
2021/12/19 08:58:57;;;;;;;10.90;5.57;;;;;;;6.82;100.00;103210.34;5054213;28;20049;-45
2021/12/19 09:01:25;;;;;;;9.93;5.80;;;;;;;6.83;100.00;103201.19;5054648;28;20098;-44
2021/12/19 09:03:53;;;;;;;9.15;5.10;;;;;;;6.83;100.00;103193.91;5048500;28;20140;-47
2021/12/19 09:06:21;;;;;;;8.93;5.50;;;;;;;6.85;100.00;103193.72;5035587;28;20398;-47
2021/12/19 09:08:48;;;;;;;8.38;5.47;;;;;;;6.86;100.00;103197.28;5034144;28;20094;-45
2021/12/19 09:11:16;;;;;;;10.85;5.55;;;;;;;6.88;100.00;103192.50;5034479;28;20115;-48
2021/12/19 09:13:44;;;;;;;9.45;5.22;;;;;;;6.88;100.00;103197.91;5034120;28;20067;-46
2021/12/19 09:16:11;;;;;;;9.32;5.35;;;;;;;6.88;100.00;103193.38;5034160;28;20041;-43
2021/12/19 09:18:39;;;;;;;10.23;5.50;;;;;;;6.88;100.00;103195.22;5035166;28;20468;-48
2021/12/19 09:21:07;;;;;;;9.50;5.07;;;;;;;6.86;100.00;103200.00;5033971;28;20111;-48
2021/12/19 09:23:34;;;;;;;9.05;4.95;;;;;;;6.85;100.00;103198.28;5033796;28;20046;-48
2021/12/19 09:26:05;;;;;;;7.72;4.70;;;;;;;6.85;100.00;103193.72;5033990;28;20049;-47
2021/12/19 09:28:33;;;;;;;7.90;5.03;;;;;;;6.85;100.00;103193.72;5034865;28;20048;-49
2021/12/19 09:31:01;;;;;;;8.20;4.97;;;;;;;6.87;100.00;103193.53;5033779;28;20052;-49
2021/12/19 09:33:29;;;;;;;7.47;4.30;;;;;;;6.87;100.00;103196.25;5051319;28;20049;-48
2021/12/19 09:35:57;;;;;;;7.30;4.45;;;;;;;6.86;100.00;103194.56;5053471;28;20049;-45
2021/12/19 09:38:25;;;;;;;7.32;4.25;;;;;;;6.85;100.00;103192.88;5049702;28;20045;-47
2021/12/19 09:41:00;;;;;;;6.57;4.18;;;;;;;6.83;100.00;103191.19;5033797;28;20388;-48
2021/12/19 09:43:41;;;;;;;7.60;3.80;;;;;;;6.85;100.00;103198.28;5033479;28;20041;-46
2021/12/19 09:46:11;;;;;;;8.40;4.10;;;;;;;6.86;100.00;103198.13;5033363;28;20045;-51
2021/12/19 09:48:40;;;;;;;5.95;3.63;;;;;;;6.87;100.00;103201.66;5034101;28;20049;-49
2021/12/19 09:51:09;;;;;;;6.18;3.67;;;;;;;6.89;100.00;103205.03;5033376;28;20041;-49
2021/12/19 09:53:38;;;;;;;7.03;3.72;;;;;;;6.90;100.00;103202.13;5052496;28;20051;-48
2021/12/19 09:56:06;;;;;;;5.43;3.65;;;;;;;6.90;100.00;103201.28;5053164;28;20113;-48
2021/12/19 09:58:35;;;;;;;5.88;3.42;;;;;;;6.93;100.00;103198.22;5051380;28;20052;-46
2021/12/19 10:01:10;;;;;;;5.15;3.42;;;;;;;6.93;100.00;103200.94;5053486;28;20140;-46
2021/12/19 10:03:38;;;;;;;5.57;3.13;;;;;;;6.93;100.00;103200.94;5034330;28;20483;-46
2021/12/19 10:06:26;;;;;;;5.05;2.92;;;;;;;6.91;100.00;103198.41;5033618;28;20062;-44
2021/12/19 10:09:18;;;;;;;5.30;2.85;;;;;;;6.90;100.00;103193.16;5034270;28;20407;-48
2021/12/19 10:12:11;;;;;;;5.40;2.92;;;;;;;6.91;100.00;103187.56;5040438;28;20044;-43
2021/12/19 10:14:41;;;;;;;3.42;2.47;;;;;;;6.91;100.00;103184.84;5053097;28;20106;-41
2021/12/19 10:17:17;;;;;;;4.13;2.72;;;;;;;6.91;100.00;103186.72;5052777;28;20102;-48
2021/12/19 10:19:51;;;;;;;4.63;2.60;;;;;;;6.91;100.00;103190.28;5049891;28;20094;-44
2021/12/19 10:22:37;;;;;;;6.40;2.88;;;;;;;6.93;100.00;103188.22;5052897;28;20045;-49
2021/12/19 10:25:19;;;;;;;3.83;2.55;;;;;;;6.94;100.00;103180.94;5052560;28;20049;-47
2021/12/19 10:27:55;;;;;;;4.22;2.95;;;;;;;6.93;100.00;103180.09;5052882;28;20128;-46
2021/12/19 10:30:25;;;;;;;2.97;2.38;;;;;;;6.92;100.00;103182.97;5042740;28;20098;-48
2021/12/19 10:33:02;;;;;;;3.40;2.35;;;;;;;6.90;100.00;103180.44;5032618;28;20095;-46
2021/12/19 10:35:41;;;;;;;2.15;1.92;;;;;;;6.83;100.00;103172.22;5032552;28;20102;-47
2021/12/19 10:38:36;;;;;;;2.85;2.25;;;;;;;6.84;100.00;103170.34;5032544;28;20048;-48
2021/12/19 10:41:10;;;;;;;4.72;2.33;;;;;;;6.88;100.00;103165.41;5033273;28;20504;-50
2021/12/19 10:46:32;;;;;;;2.38;1.70;;;;;;;6.95;100.00;103171.75;5035263;28;20495;-47
2021/12/19 10:49:02;;;;;;;2.65;1.63;;;;;;;6.89;100.00;103167.09;5052601;28;20489;-48
2021/12/19 10:51:37;;;;;;;2.55;1.58;;;;;;;6.88;100.00;103176.22;5049917;28;20048;-45
2021/12/19 10:54:07;;;;;;;3.10;1.60;;;;;;;6.85;100.00;103155.78;5034865;28;20057;-47
2021/12/19 10:56:36;;;;;;;1.73;1.63;;;;;;;6.84;100.00;103145.97;5052242;28;20049;-46
2021/12/19 10:59:06;;;;;;;2.75;1.85;;;;;;;6.86;100.00;103146.63;4347276;28;10000783;-45
2021/12/19 11:01:38;;;;;;;1.60;1.50;;;;;;;6.89;100.00;103138.13;5035146;28;20037;-45
2021/12/19 11:04:12;;;;;;;6.78;4.65;;;;;;;6.92;100.00;103139.63;5050503;28;20118;-44
2021/12/19 11:06:40;;;;;;;2.97;2.17;;;;;;;6.90;100.00;103130.81;5050750;28;20045;-48
2021/12/19 11:09:21;;;;;;;2.38;1.85;;;;;;;6.87;100.00;103126.63;5050722;28;20070;-47
2021/12/19 11:12:21;;;;;;;2.63;2.00;;;;;;;6.85;100.00;103117.00;4995108;28;20059;-48
2021/12/19 11:14:49;;;;;;;2.13;2.00;;;;;;;6.91;100.00;103110.84;4988785;28;20050;-45
2021/12/19 11:17:26;;;;;;;1.65;1.55;;;;;;;6.96;100.00;103108.41;4988540;28;20054;-47
2021/12/19 11:19:55;;;;;;;2.38;1.90;;;;;;;6.98;100.00;103109.91;4956660;28;20444;-48
2021/12/19 11:22:26;;;;;;;3.30;1.75;;;;;;;7.00;100.00;103101.59;4980394;28;20078;-48
2021/12/19 11:25:00;;;;;;;3.13;1.98;;;;;;;7.03;100.00;103098.50;5007279;28;20804;-48
2021/12/19 11:27:29;;;;;;;2.25;1.55;;;;;;;7.04;100.00;103097.47;4988564;28;20053;-46
2021/12/19 11:29:58;;;;;;;2.53;1.50;;;;;;;7.06;100.00;103095.41;5009691;28;20052;-50
2021/12/19 11:32:51;;;;;;;3.08;1.92;;;;;;;7.07;100.00;103094.41;5030169;28;20045;-46
2021/12/19 11:35:24;;;;;;;2.25;2.05;;;;;;;7.10;100.00;103083.16;4996607;28;20057;-45
2021/12/19 11:37:58;;;;;;;1.98;1.73;;;;;;;7.13;100.00;103088.19;5028904;28;20518;-49
2021/12/19 11:40:26;;;;;;;3.08;1.80;;;;;;;7.13;100.00;103082.78;5028889;28;20488;-45
2021/12/19 11:43:08;;;;;;;1.40;1.30;;;;;;;7.14;100.00;103089.03;5030120;28;20045;-47
2021/12/19 11:45:42;;;;;;;2.58;1.55;;;;;;;7.09;100.00;103081.47;5030443;28;20037;-46
2021/12/19 11:48:26;;;;;;;1.83;1.30;;;;;;;7.11;100.00;103078.56;5029210;28;20053;-46
2021/12/19 11:51:16;;;;;;;2.80;1.48;;;;;;;7.11;100.00;103084.84;5030359;28;20042;-49
2021/12/19 11:53:45;;;;;;;1.58;1.20;;;;;;;7.09;100.00;103076.03;5031091;28;20092;-43
2021/12/19 11:56:17;;;;;;;2.08;1.20;;;;;;;7.09;100.00;103076.03;5029807;28;20057;-47
2021/12/19 11:58:55;;;;;;;1.38;1.05;;;;;;;7.11;100.00;103078.56;5035584;28;20524;-46
2021/12/19 12:01:27;;;;;;;1.45;1.20;;;;;;;7.10;100.00;103066.91;5047960;28;20049;-46
2021/12/19 12:04:00;;;;;;;1.60;1.33;;;;;;;7.09;100.00;103064.38;5040528;28;20049;-46
2021/12/19 12:06:32;;;;;;;2.42;1.63;;;;;;;7.06;100.00;103062.88;5033237;28;20051;-45
2021/12/19 12:09:15;;;;;;;2.85;2.08;;;;;;;7.01;100.00;103057.19;5032987;28;20053;-45
2021/12/19 12:12:06;;;;;;;3.03;1.83;;;;;;;6.98;100.00;103047.56;5033398;28;20049;-47
2021/12/19 12:14:55;;;;;;;5.20;2.30;;;;;;;6.98;100.00;103053.00;5034536;28;20037;-47
2021/12/19 12:17:35;;;;;;;2.42;1.83;;;;;;;7.00;100.00;103047.38;5033763;28;20460;-46
2021/12/19 12:20:21;;;;;;;4.30;2.30;;;;;;;6.99;100.00;103048.41;5033340;28;20046;-47
2021/12/19 12:22:55;;;;;;;3.40;2.08;;;;;;;6.98;100.00;103050.28;5033392;28;20046;-46
2021/12/19 12:25:28;;;;;;;5.28;2.60;;;;;;;6.95;100.00;103050.66;5038800;28;20045;-46
2021/12/19 12:28:03;;;;;;;4.45;2.58;;;;;;;6.97;100.00;103047.75;5037183;28;20084;-45
2021/12/19 12:30:34;;;;;;;9.13;2.90;;;;;;;7.01;100.00;103051.78;5051829;28;20541;-45
2021/12/19 12:33:06;;;;;;;8.77;3.40;;;;;;;7.00;100.00;103040.09;5051532;28;20860;-48
2021/12/19 12:35:37;;;;;;;5.72;2.90;;;;;;;7.01;100.00;103035.50;5042631;28;20399;-46
2021/12/19 12:38:06;;;;;;;8.23;3.15;;;;;;;7.00;100.00;103042.81;5032903;28;20061;-45
2021/12/19 12:40:58;;;;;;;8.55;3.05;;;;;;;6.99;100.00;103032.13;5031375;28;20081;-45
2021/12/19 12:43:37;;;;;;;8.05;2.85;;;;;;;6.98;100.00;103025.06;5032554;28;20037;-45